createdAt,value
2023-06-27T00:02:47.609Z,7.22
2023-06-27T00:05:50.324Z,6.35
2023-06-27T00:08:52.799Z,6.10
2023-06-27T00:11:55.359Z,6.53
2023-06-27T00:14:58.174Z,6.47
2023-06-27T00:18:00.808Z,7.07
2023-06-27T00:21:03.404Z,7.30
2023-06-27T00:24:06.073Z,7.70
2023-06-27T00:27:08.748Z,7.70
2023-06-27T00:30:11.512Z,7.25
2023-06-27T00:33:14.846Z,8.05
2023-06-27T00:36:17.330Z,7.55
2023-06-27T00:39:20.160Z,6.70
2023-06-27T00:42:22.720Z,6.50
2023-06-27T00:45:25.289Z,6.15
2023-06-27T00:48:27.922Z,7.85
2023-06-27T00:51:31.260Z,6.35
2023-06-27T00:54:34.074Z,6.70
2023-06-27T00:57:36.595Z,6.93
2023-06-27T01:00:40.416Z,6.32
2023-06-27T01:03:44.223Z,6.60
2023-06-27T01:07:15.565Z,6.80
2023-06-27T01:10:50.543Z,7.10
2023-06-27T01:13:57.709Z,6.80
2023-06-27T01:17:00.759Z,6.32
2023-06-27T01:20:03.741Z,5.82
2023-06-27T01:23:15.980Z,6.68
2023-06-27T01:26:18.532Z,7.00
2023-06-27T01:29:21.804Z,7.40
2023-06-27T01:32:39.620Z,7.20
2023-06-27T01:35:50.808Z,7.55
2023-06-27T01:38:57.876Z,7.20
2023-06-27T01:42:05.705Z,8.25
2023-06-27T01:45:09.295Z,7.43
2023-06-27T01:48:12.144Z,6.70
2023-06-27T01:51:15.380Z,7.15
2023-06-27T01:54:17.927Z,7.75
2023-06-27T01:57:20.480Z,6.97
2023-06-27T02:00:23.010Z,7.67
2023-06-27T02:03:25.634Z,6.95
2023-06-27T02:06:28.601Z,7.30
2023-06-27T02:09:31.063Z,7.50
2023-06-27T02:12:35.056Z,7.40
2023-06-27T02:15:37.770Z,7.20
2023-06-27T02:18:40.725Z,7.07
2023-06-27T02:21:44.459Z,7.45
2023-06-27T02:24:47.356Z,6.80
2023-06-27T02:27:49.934Z,6.82
2023-06-27T02:30:52.412Z,6.77
2023-06-27T02:33:54.887Z,6.82
2023-06-27T02:36:57.445Z,6.95
2023-06-27T02:40:01.648Z,6.88
2023-06-27T02:43:07.403Z,8.27
2023-06-27T02:46:09.917Z,7.10
2023-06-27T02:49:12.407Z,7.03
2023-06-27T02:52:14.845Z,8.07
2023-06-27T02:55:17.995Z,7.47
2023-06-27T02:58:20.733Z,6.68
2023-06-27T03:01:23.482Z,7.90
2023-06-27T03:04:26.480Z,8.70
2023-06-27T03:07:29.704Z,7.88
2023-06-27T03:10:32.811Z,8.10
2023-06-27T03:13:36.001Z,8.57
2023-06-27T03:16:38.662Z,9.00
2023-06-27T03:19:45.079Z,13.70
2023-06-27T03:22:50.525Z,9.30
2023-06-27T03:25:53.440Z,7.68
2023-06-27T03:28:57.204Z,9.00
2023-06-27T03:32:00.678Z,8.13
2023-06-27T03:35:04.754Z,8.63
2023-06-27T03:38:07.986Z,8.63
2023-06-27T03:41:10.511Z,7.25
2023-06-27T03:44:13.045Z,7.47
2023-06-27T03:47:15.544Z,7.93
2023-06-27T03:50:18.645Z,8.32
2023-06-27T03:53:21.535Z,7.97
2023-06-27T03:56:24.270Z,7.88
2023-06-27T03:59:26.757Z,7.75
2023-06-27T04:02:29.844Z,7.77
2023-06-27T04:05:32.421Z,7.03
2023-06-27T04:08:35.033Z,7.78
2023-06-27T04:11:37.502Z,8.30
2023-06-27T04:14:40.054Z,7.40
2023-06-27T04:17:43.458Z,8.27
2023-06-27T04:20:46.909Z,7.80
2023-06-27T04:23:51.749Z,9.40
2023-06-27T04:26:54.869Z,8.63
2023-06-27T04:29:58.452Z,10.68
2023-06-27T04:33:02.352Z,10.43
2023-06-27T04:36:05.327Z,10.82
2023-06-27T04:39:11.667Z,9.73
2023-06-27T04:42:15.310Z,9.77
2023-06-27T04:45:17.771Z,9.80
2023-06-27T04:48:20.267Z,9.53
2023-06-27T04:51:22.770Z,8.82
2023-06-27T04:54:25.905Z,9.10
2023-06-27T04:57:28.433Z,10.35
2023-06-27T05:00:30.928Z,8.75
2023-06-27T05:03:33.505Z,8.07
2023-06-27T05:06:36.138Z,9.18
2023-06-27T05:09:38.645Z,9.68
2023-06-27T05:12:41.288Z,10.55
2023-06-27T05:15:44.143Z,10.27
2023-06-27T05:18:47.372Z,9.90
2023-06-27T05:21:49.867Z,8.63
2023-06-27T05:24:52.364Z,8.13
2023-06-27T05:27:55.703Z,8.40
2023-06-27T05:31:16.186Z,8.27
2023-06-27T05:34:18.771Z,7.37
2023-06-27T05:37:21.531Z,7.50
2023-06-27T05:40:23.996Z,9.13
2023-06-27T05:43:26.440Z,7.65
2023-06-27T05:46:29.001Z,7.82
2023-06-27T05:49:31.508Z,8.07
2023-06-27T05:52:33.979Z,8.23
2023-06-27T05:55:36.432Z,8.02
2023-06-27T05:58:39.001Z,8.18
2023-06-27T06:01:42.022Z,8.60
2023-06-27T06:04:44.560Z,7.90
2023-06-27T06:07:47.036Z,8.30
2023-06-27T06:10:51.734Z,8.90
2023-06-27T06:13:54.658Z,10.20
2023-06-27T06:16:57.169Z,9.77
2023-06-27T06:19:59.805Z,9.43
2023-06-27T06:23:02.286Z,10.02
2023-06-27T06:26:04.842Z,10.15
2023-06-27T06:29:09.981Z,9.93
2023-06-27T06:32:12.469Z,10.40
2023-06-27T06:35:14.981Z,9.57
2023-06-27T06:38:17.463Z,9.13
2023-06-27T06:41:20.015Z,8.98
2023-06-27T06:44:22.419Z,9.70
2023-06-27T06:47:24.967Z,10.82
2023-06-27T06:50:27.619Z,10.20
2023-06-27T06:53:30.159Z,10.65
2023-06-27T06:56:32.703Z,10.68
2023-06-27T06:59:35.286Z,10.40
2023-06-27T07:02:37.833Z,9.75
2023-06-27T07:05:43.455Z,9.63
2023-06-27T07:08:46.022Z,11.45
2023-06-27T07:11:51.287Z,11.32
2023-06-27T07:14:53.966Z,11.55
2023-06-27T07:17:57.012Z,11.90
2023-06-27T07:20:59.525Z,11.63
2023-06-27T07:24:02.416Z,9.85
2023-06-27T07:27:05.323Z,8.38
2023-06-27T07:30:08.616Z,9.38
2023-06-27T07:33:11.388Z,7.82
2023-06-27T07:36:13.955Z,8.57
2023-06-27T07:39:16.470Z,8.48
2023-06-27T07:42:18.984Z,8.60
2023-06-27T07:45:21.668Z,8.25
2023-06-27T07:48:24.289Z,8.30
2023-06-27T07:51:30.016Z,8.10
2023-06-27T07:54:32.494Z,7.78
2023-06-27T07:57:35.612Z,7.53
2023-06-27T08:00:40.376Z,7.45
2023-06-27T08:03:43.346Z,8.27
2023-06-27T08:06:46.145Z,8.73
2023-06-27T08:09:48.728Z,7.45
2023-06-27T08:12:51.368Z,6.25
2023-06-27T08:15:53.927Z,6.88
2023-06-27T08:18:56.879Z,7.60
2023-06-27T08:21:59.294Z,8.73
2023-06-27T08:25:01.781Z,7.32
2023-06-27T08:28:04.563Z,6.93
2023-06-27T08:31:07.066Z,6.80
2023-06-27T08:34:09.656Z,6.85
2023-06-27T08:37:12.554Z,7.13
2023-06-27T08:40:22.208Z,5.88
2023-06-27T08:43:25.582Z,6.50
2023-06-27T08:46:29.387Z,5.72
2023-06-27T08:49:34.835Z,7.10
2023-06-27T08:52:51.224Z,6.93
2023-06-27T08:56:06.385Z,6.82
2023-06-27T08:59:12.607Z,11.27
2023-06-27T09:02:15.507Z,7.00
2023-06-27T09:05:18.335Z,6.05
2023-06-27T09:08:21.748Z,6.80
2023-06-27T09:11:26.764Z,6.78
2023-06-27T09:14:29.452Z,7.32
2023-06-27T09:17:32.121Z,6.60
2023-06-27T09:20:34.759Z,6.95
2023-06-27T09:23:37.566Z,7.10
2023-06-27T09:26:39.981Z,6.30
2023-06-27T09:29:44.626Z,6.05
2023-06-27T09:32:54.999Z,6.38
2023-06-27T09:36:01.945Z,5.78
2023-06-27T09:39:06.861Z,6.10
2023-06-27T09:42:09.495Z,6.05
2023-06-27T09:45:17.785Z,6.57
2023-06-27T09:48:20.298Z,6.25
2023-06-27T09:51:26.100Z,7.03
2023-06-27T09:54:28.568Z,6.57
2023-06-27T09:57:31.413Z,7.25
2023-06-27T10:00:33.874Z,7.07
2023-06-27T10:03:37.479Z,6.70
2023-06-27T10:06:40.518Z,7.15
2023-06-27T10:09:43.444Z,6.77
2023-06-27T10:12:46.610Z,7.38
2023-06-27T10:15:49.476Z,6.75
2023-06-27T10:18:53.928Z,6.18
2023-06-27T10:21:56.436Z,5.93
2023-06-27T10:25:18.109Z,4.93
2023-06-27T10:28:22.452Z,5.50
2023-06-27T10:31:38.572Z,4.85
2023-06-27T10:34:42.972Z,5.18
2023-06-27T10:38:05.605Z,5.03
2023-06-27T10:41:13.264Z,4.67
2023-06-27T10:44:18.931Z,4.63
2023-06-27T10:47:21.472Z,6.00
2023-06-27T10:50:24.103Z,5.13
2023-06-27T10:53:26.776Z,7.43
2023-06-27T10:56:30.286Z,5.57
2023-06-27T10:59:35.184Z,5.43
2023-06-27T11:02:42.824Z,5.05
2023-06-27T11:05:55.990Z,5.40
2023-06-27T11:08:58.553Z,6.10
2023-06-27T11:12:12.948Z,5.10
2023-06-27T11:15:15.560Z,5.22
2023-06-27T11:18:20.083Z,5.40
2023-06-27T11:21:23.377Z,4.88
2023-06-27T11:24:25.986Z,4.85
2023-06-27T11:27:31.736Z,5.57
2023-06-27T11:30:34.826Z,6.07
2023-06-27T11:33:37.319Z,5.30
2023-06-27T11:36:40.277Z,5.45
2023-06-27T11:39:54.063Z,6.03
2023-06-27T11:43:07.516Z,4.93
2023-06-27T11:46:10.022Z,5.85
2023-06-27T11:49:12.500Z,6.82
2023-06-27T11:52:17.054Z,6.60
2023-06-27T11:55:19.688Z,6.60
2023-06-27T11:58:33.142Z,6.77
2023-06-27T12:01:42.991Z,6.28
2023-06-27T12:04:45.562Z,6.05
2023-06-27T12:08:08.101Z,6.22
2023-06-27T12:11:10.858Z,5.57
2023-06-27T12:14:22.328Z,5.40
2023-06-27T12:17:25.212Z,5.20
2023-06-27T12:20:41.208Z,6.10
2023-06-27T12:23:44.016Z,4.90
2023-06-27T12:26:46.953Z,6.03
2023-06-27T12:29:49.406Z,5.40
2023-06-27T12:32:52.017Z,5.53
2023-06-27T12:35:54.669Z,4.90
2023-06-27T12:38:57.171Z,4.80
2023-06-27T12:41:59.648Z,6.38
2023-06-27T12:45:02.215Z,5.83
2023-06-27T12:48:04.931Z,5.93
2023-06-27T12:51:08.289Z,6.50
2023-06-27T12:54:10.911Z,6.30
2023-06-27T12:57:13.436Z,5.90
2023-06-27T13:00:21.254Z,5.70
2023-06-27T13:03:24.811Z,6.25
2023-06-27T13:06:27.457Z,5.60
2023-06-27T13:09:29.978Z,5.85
2023-06-27T13:12:32.555Z,5.93
2023-06-27T13:15:42.052Z,6.03
2023-06-27T13:18:48.528Z,6.35
2023-06-27T13:21:52.898Z,6.50
2023-06-27T13:24:57.706Z,6.18
2023-06-27T13:28:00.391Z,6.03
2023-06-27T13:31:03.396Z,6.10
2023-06-27T13:34:06.109Z,5.85
2023-06-27T13:37:09.269Z,6.25
2023-06-27T13:40:12.718Z,6.40
2023-06-27T13:48:54.492Z,6.77
2023-06-27T13:51:57.421Z,9.43
2023-06-27T13:54:59.917Z,6.60
2023-06-27T13:58:02.677Z,6.20
2023-06-27T14:01:05.241Z,6.85
2023-06-27T14:04:07.751Z,5.77
2023-06-27T14:07:10.735Z,5.80
2023-06-27T14:10:13.487Z,10.18
2023-06-27T14:13:16.403Z,7.00
2023-06-27T14:16:19.733Z,6.68
2023-06-27T14:19:22.206Z,6.37
2023-06-27T14:22:24.772Z,6.32
2023-06-27T14:25:28.199Z,5.88
2023-06-27T14:28:31.989Z,5.75
2023-06-27T14:31:34.503Z,6.18
2023-06-27T14:34:37.983Z,6.10
2023-06-27T14:37:40.777Z,5.65
2023-06-27T14:40:43.436Z,5.50
2023-06-27T14:43:46.021Z,4.30
2023-06-27T14:46:48.851Z,4.00
2023-06-27T14:49:51.332Z,4.40
2023-06-27T14:52:53.854Z,3.30
2023-06-27T14:55:56.345Z,4.78
2023-06-27T14:58:58.882Z,4.55
2023-06-27T15:02:01.509Z,4.00
2023-06-27T15:05:04.120Z,4.13
2023-06-27T15:08:06.827Z,3.53
2023-06-27T15:11:09.308Z,4.32
2023-06-27T15:14:11.798Z,4.20
2023-06-27T15:17:14.225Z,3.50
2023-06-27T15:20:16.622Z,3.60
2023-06-27T15:23:25.750Z,3.33
2023-06-27T15:26:35.978Z,3.45
2023-06-27T15:29:39.294Z,3.03
2023-06-27T15:32:41.758Z,3.45
2023-06-27T15:35:44.499Z,2.93
2023-06-27T15:38:47.954Z,2.97
2023-06-27T15:41:50.373Z,3.50
2023-06-27T15:44:53.053Z,3.70
2023-06-27T15:47:55.498Z,3.53
2023-06-27T15:50:59.952Z,3.90
2023-06-27T15:54:02.770Z,3.60
2023-06-27T15:57:06.080Z,3.83
2023-06-27T16:00:09.291Z,4.10
2023-06-27T16:03:18.379Z,4.13
2023-06-27T16:06:21.053Z,4.00
2023-06-27T16:09:23.513Z,3.50
2023-06-27T16:12:26.062Z,4.07
2023-06-27T16:15:28.651Z,4.68
2023-06-27T16:18:31.096Z,4.20
2023-06-27T16:21:37.553Z,3.90
2023-06-27T16:24:40.089Z,3.97
2023-06-27T16:27:42.570Z,3.90
2023-06-27T16:30:45.538Z,4.25
2023-06-27T16:33:50.426Z,4.20
2023-06-27T16:36:52.827Z,4.20
2023-06-27T16:39:55.262Z,3.92
2023-06-27T16:42:57.711Z,4.28
2023-06-27T16:46:00.203Z,4.30
2023-06-27T16:49:02.724Z,4.25
2023-06-27T16:52:05.720Z,4.33
2023-06-27T16:55:09.022Z,4.55
2023-06-27T16:58:11.549Z,4.88
2023-06-27T17:01:14.008Z,5.28
2023-06-27T17:04:16.456Z,4.82
2023-06-27T17:07:19.013Z,4.63
2023-06-27T17:10:21.608Z,4.35
2023-06-27T17:13:25.785Z,4.63
2023-06-27T17:16:28.236Z,4.75
2023-06-27T17:19:31.033Z,4.90
2023-06-27T17:22:33.629Z,4.47
2023-06-27T17:25:36.014Z,4.80
2023-06-27T17:28:38.501Z,4.80
2023-06-27T17:31:41.211Z,4.43
2023-06-27T17:34:43.709Z,4.63
2023-06-27T17:37:46.204Z,4.50
2023-06-27T17:40:48.950Z,4.72
2023-06-27T17:43:51.453Z,4.88
2023-06-27T17:46:54.150Z,4.70
2023-06-27T17:49:56.601Z,5.38
2023-06-27T17:53:00.242Z,5.40
2023-06-27T17:56:02.738Z,4.78
2023-06-27T17:59:05.169Z,5.00
2023-06-27T18:02:07.744Z,3.83
2023-06-27T18:05:10.423Z,3.75
2023-06-27T18:08:16.903Z,3.87
2023-06-27T18:11:19.432Z,3.63
2023-06-27T18:14:22.000Z,3.72
2023-06-27T18:17:24.424Z,4.28
2023-06-27T18:20:26.900Z,3.85
2023-06-27T18:23:29.714Z,3.93
2023-06-27T18:26:33.616Z,4.30
2023-06-27T18:29:36.282Z,4.15
2023-06-27T18:32:41.165Z,4.28
2023-06-27T18:35:43.770Z,4.28
2023-06-27T18:38:46.504Z,5.07
2023-06-27T18:41:50.046Z,4.82
2023-06-27T18:44:52.530Z,4.93
2023-06-27T18:47:55.102Z,4.70
2023-06-27T18:50:58.044Z,5.20
2023-06-27T18:54:00.575Z,5.47
2023-06-27T18:57:05.186Z,5.93
2023-06-27T19:00:08.417Z,5.60
2023-06-27T19:03:11.116Z,5.65
2023-06-27T19:06:13.990Z,5.70
2023-06-27T19:09:20.072Z,5.80
2023-06-27T19:12:22.941Z,5.35
2023-06-27T19:15:25.711Z,5.32
2023-06-27T19:18:28.159Z,5.55
2023-06-27T19:21:31.444Z,5.70
2023-06-27T19:24:34.463Z,5.40
2023-06-27T19:27:36.941Z,5.07
2023-06-27T19:30:39.605Z,5.40
2023-06-27T19:33:44.643Z,5.32
2023-06-27T19:36:47.156Z,5.40
2023-06-27T19:39:49.986Z,5.90
2023-06-27T19:42:52.676Z,5.78
2023-06-27T19:45:55.315Z,5.53
2023-06-27T19:48:58.936Z,6.05
2023-06-27T19:52:01.555Z,6.30
2023-06-27T19:55:04.318Z,6.77
2023-06-27T19:58:07.251Z,5.93
2023-06-27T20:01:10.070Z,6.78
2023-06-27T20:04:12.647Z,7.28
2023-06-27T20:07:15.640Z,7.57
2023-06-27T20:10:19.933Z,8.00
2023-06-27T20:13:22.716Z,7.38
2023-06-27T20:16:26.292Z,7.43
2023-06-27T20:19:29.048Z,8.88
2023-06-27T20:22:31.633Z,7.72
2023-06-27T20:25:34.131Z,7.07
2023-06-27T20:28:36.674Z,6.88
2023-06-27T20:31:39.429Z,7.18
2023-06-27T20:34:42.579Z,6.72
2023-06-27T20:37:45.085Z,6.78
2023-06-27T20:40:47.641Z,7.30
2023-06-27T20:43:53.779Z,7.03
2023-06-27T20:46:56.259Z,6.75
2023-06-27T20:49:58.863Z,7.55
2023-06-27T20:53:01.349Z,9.10
2023-06-27T20:56:03.992Z,8.73
2023-06-27T20:59:06.448Z,7.22
2023-06-27T21:02:09.952Z,8.15
2023-06-27T21:05:12.462Z,8.48
2023-06-27T21:08:14.936Z,8.68
2023-06-27T21:11:17.488Z,8.80
2023-06-27T21:14:20.047Z,7.57
2023-06-27T21:17:28.475Z,9.00
2023-06-27T21:20:30.947Z,7.55
2023-06-27T21:23:33.953Z,7.13
2023-06-27T21:26:36.413Z,6.63
2023-06-27T21:29:38.888Z,7.40
2023-06-27T21:32:41.403Z,7.90
2023-06-27T21:35:43.895Z,8.07
2023-06-27T21:38:46.648Z,7.63
2023-06-27T21:41:49.174Z,8.10
2023-06-27T21:44:51.688Z,7.63
2023-06-27T21:47:54.670Z,8.48
2023-06-27T21:50:57.166Z,8.80
2023-06-27T21:53:59.667Z,8.40
2023-06-27T21:57:02.164Z,7.67
2023-06-27T22:00:07.400Z,7.95
2023-06-27T22:03:12.736Z,8.27
2023-06-27T22:06:15.330Z,8.38
2023-06-27T22:09:17.821Z,9.00
2023-06-27T22:12:21.600Z,10.07
2023-06-27T22:15:24.178Z,9.20
2023-06-27T22:18:27.032Z,9.38
2023-06-27T22:21:29.507Z,10.27
2023-06-27T22:24:32.548Z,9.10
2023-06-27T22:27:35.008Z,9.17
2023-06-27T22:30:37.606Z,8.40
2023-06-27T22:33:40.119Z,8.60
2023-06-27T22:36:42.651Z,7.53
2023-06-27T22:39:45.959Z,8.15
2023-06-27T22:42:48.415Z,7.87
2023-06-27T22:45:51.037Z,8.05
2023-06-27T22:48:53.937Z,7.82
2023-06-27T22:51:56.497Z,8.32
2023-06-27T22:55:00.033Z,7.45
2023-06-27T22:58:02.496Z,7.73
2023-06-27T23:01:05.867Z,7.78
2023-06-27T23:04:08.345Z,7.05
2023-06-27T23:07:10.845Z,7.32
2023-06-27T23:10:13.341Z,7.00
2023-06-27T23:13:15.883Z,6.40
2023-06-27T23:16:18.929Z,6.75
2023-06-27T23:19:23.816Z,6.10
2023-06-27T23:22:26.290Z,6.47
2023-06-27T23:25:28.823Z,7.00
2023-06-27T23:28:31.293Z,6.33
2023-06-27T23:31:35.977Z,6.90
2023-06-27T23:34:38.892Z,7.10
2023-06-27T23:37:41.666Z,6.30
2023-06-27T23:40:44.396Z,6.53
2023-06-27T23:43:47.017Z,7.40
2023-06-27T23:46:49.644Z,6.65
2023-06-27T23:49:52.208Z,6.68
2023-06-27T23:52:54.665Z,6.15
2023-06-27T23:55:57.147Z,6.47
2023-06-27T23:58:59.668Z,6.60
